createdAt,value
2022-10-02T00:00:45.569Z,15.45
2022-10-02T00:03:37.966Z,15.51
2022-10-02T00:06:14.963Z,15.59
2022-10-02T00:08:44.333Z,15.66
2022-10-02T00:11:20.772Z,15.70
2022-10-02T00:13:56.655Z,15.73
2022-10-02T00:16:28.186Z,15.68
2022-10-02T00:18:57.373Z,15.51
2022-10-02T00:21:51.387Z,15.49
2022-10-02T00:24:35.024Z,15.53
2022-10-02T00:27:25.213Z,15.52
2022-10-02T00:29:57.993Z,15.43
2022-10-02T00:32:28.914Z,15.42
2022-10-02T00:35:34.493Z,15.44
2022-10-02T00:38:23.960Z,15.47
2022-10-02T00:41:13.639Z,15.50
2022-10-02T00:44:18.982Z,15.52
2022-10-02T00:47:03.132Z,15.52
2022-10-02T00:49:49.028Z,15.54
2022-10-02T00:52:41.470Z,15.52
2022-10-02T00:55:41.593Z,15.52
2022-10-02T00:58:47.651Z,15.49
2022-10-02T01:01:22.201Z,15.42
2022-10-02T01:03:56.653Z,15.43
2022-10-02T01:06:28.204Z,15.43
2022-10-02T01:08:56.328Z,15.45
2022-10-02T01:11:27.097Z,15.49
2022-10-02T01:13:55.340Z,15.54
2022-10-02T01:16:23.975Z,15.58
2022-10-02T01:18:52.400Z,15.61
2022-10-02T01:21:27.412Z,15.63
2022-10-02T01:24:09.027Z,15.66
2022-10-02T01:26:37.423Z,15.72
2022-10-02T01:29:05.989Z,15.77
2022-10-02T01:31:36.094Z,15.81
2022-10-02T01:34:04.948Z,15.84
2022-10-02T01:36:33.838Z,15.82
2022-10-02T01:39:02.892Z,15.78
2022-10-02T01:41:32.487Z,15.75
2022-10-02T01:44:02.639Z,15.66
2022-10-02T01:46:46.045Z,15.52
2022-10-02T01:49:41.889Z,15.49
2022-10-02T01:52:27.614Z,15.42
2022-10-02T01:55:22.740Z,15.37
2022-10-02T01:58:20.903Z,15.35
2022-10-02T02:01:14.721Z,15.29
2022-10-02T02:04:15.241Z,15.27
2022-10-02T02:06:59.496Z,15.25
2022-10-02T02:09:33.213Z,15.24
2022-10-02T02:12:15.277Z,15.24
2022-10-02T02:14:51.542Z,15.22
2022-10-02T02:17:40.010Z,15.23
2022-10-02T02:20:18.424Z,15.24
2022-10-02T02:22:51.855Z,15.25
2022-10-02T02:25:26.333Z,15.26
2022-10-02T02:28:00.041Z,15.24
2022-10-02T02:30:31.844Z,15.22
2022-10-02T02:33:07.361Z,15.22
2022-10-02T02:35:41.772Z,15.19
2022-10-02T02:38:25.102Z,15.15
2022-10-02T02:40:56.246Z,15.14
2022-10-02T02:43:30.463Z,15.11
2022-10-02T02:46:05.560Z,15.10
2022-10-02T02:48:43.502Z,15.09
2022-10-02T02:51:23.966Z,15.06
2022-10-02T02:54:01.885Z,15.05
2022-10-02T02:56:32.174Z,15.06
2022-10-02T02:59:09.172Z,15.04
2022-10-02T03:01:37.863Z,15.01
2022-10-02T03:04:06.038Z,14.97
2022-10-02T03:06:38.498Z,14.95
2022-10-02T03:09:13.082Z,14.94
2022-10-02T03:11:59.125Z,14.92
2022-10-02T03:14:38.765Z,14.88
2022-10-02T03:17:24.766Z,14.86
2022-10-02T03:20:21.518Z,14.81
2022-10-02T03:23:25.415Z,14.76
2022-10-02T03:26:04.416Z,14.67
2022-10-02T03:28:54.878Z,14.70
2022-10-02T03:31:27.866Z,14.65
2022-10-02T03:33:59.343Z,14.63
2022-10-02T03:36:27.871Z,14.61
2022-10-02T03:39:23.291Z,14.57
2022-10-02T03:41:48.173Z,14.49
2022-10-02T03:44:16.143Z,14.44
2022-10-02T03:46:44.120Z,14.42
2022-10-02T03:49:12.285Z,14.42
2022-10-02T03:51:40.567Z,14.38
2022-10-02T03:54:20.532Z,14.33
2022-10-02T03:57:12.781Z,14.25
2022-10-02T03:59:44.103Z,14.19
2022-10-02T04:02:27.202Z,14.19
2022-10-02T04:05:25.606Z,14.18
2022-10-02T04:08:18.665Z,14.18
2022-10-02T04:11:08.137Z,14.12
2022-10-02T04:13:45.433Z,14.08
2022-10-02T04:16:41.307Z,14.04
2022-10-02T04:19:18.947Z,14.01
2022-10-02T04:21:56.338Z,13.97
2022-10-02T04:24:49.519Z,13.94
2022-10-02T04:27:40.507Z,13.93
2022-10-02T04:30:15.008Z,13.91
2022-10-02T04:32:43.410Z,13.89
2022-10-02T04:35:17.795Z,13.88
2022-10-02T04:38:08.345Z,13.89
2022-10-02T04:40:39.168Z,13.92
2022-10-02T04:43:36.115Z,13.95
2022-10-02T04:46:38.895Z,13.96
2022-10-02T04:49:32.061Z,13.98
2022-10-02T04:52:23.887Z,13.97
2022-10-02T04:55:16.438Z,13.99
2022-10-02T04:57:55.278Z,14.00
2022-10-02T05:00:25.747Z,14.01
2022-10-02T05:03:06.256Z,14.03
2022-10-02T05:06:13.747Z,13.96
2022-10-02T05:08:57.591Z,13.79
2022-10-02T05:11:28.326Z,13.72
2022-10-02T05:14:26.498Z,13.67
2022-10-02T05:16:54.469Z,13.56
2022-10-02T05:19:50.092Z,13.54
2022-10-02T05:22:55.027Z,13.51
2022-10-02T05:25:32.352Z,13.49
2022-10-02T05:28:06.270Z,13.43
2022-10-02T05:31:27.392Z,13.41
2022-10-02T05:34:07.126Z,13.35
2022-10-02T05:36:56.569Z,13.30
2022-10-02T05:39:34.088Z,13.27
2022-10-02T05:42:13.877Z,13.19
2022-10-02T05:44:50.957Z,13.12
2022-10-02T05:47:26.643Z,13.12
2022-10-02T05:50:18.915Z,13.13
2022-10-02T05:53:00.948Z,13.16
2022-10-02T05:55:35.807Z,13.23
2022-10-02T05:58:37.037Z,13.28
2022-10-02T06:01:15.392Z,13.35
2022-10-02T06:04:05.452Z,13.38
2022-10-02T06:06:55.324Z,13.39
2022-10-02T06:09:27.295Z,13.43
2022-10-02T06:12:14.104Z,13.48
2022-10-02T06:14:59.180Z,13.50
2022-10-02T06:18:03.296Z,13.61
2022-10-02T06:20:49.486Z,13.61
2022-10-02T06:23:31.485Z,13.56
2022-10-02T06:26:05.092Z,13.67
2022-10-02T06:28:55.076Z,13.78
2022-10-02T06:31:45.821Z,13.89
2022-10-02T06:34:14.846Z,14.01
2022-10-02T06:36:58.651Z,14.14
2022-10-02T06:39:45.667Z,14.28
2022-10-02T06:42:42.063Z,14.48
2022-10-02T06:45:23.071Z,14.60
2022-10-02T06:48:34.673Z,14.69
2022-10-02T06:51:11.412Z,14.72
2022-10-02T06:54:09.284Z,14.59
2022-10-02T06:56:58.858Z,14.52
2022-10-02T06:59:47.714Z,14.41
2022-10-02T07:02:27.711Z,14.40
2022-10-02T07:05:08.233Z,14.44
2022-10-02T07:07:42.001Z,14.49
2022-10-02T07:10:28.954Z,14.59
2022-10-02T07:13:15.962Z,14.64
2022-10-02T07:15:53.184Z,14.65
2022-10-02T07:18:30.126Z,14.73
2022-10-02T07:21:07.928Z,14.82
2022-10-02T07:23:45.321Z,14.96
2022-10-02T07:26:37.774Z,15.00
2022-10-02T07:29:53.250Z,15.09
2022-10-02T07:32:42.423Z,15.22
2022-10-02T07:35:19.906Z,15.32
2022-10-02T07:38:16.859Z,15.39
2022-10-02T07:40:47.689Z,15.40
2022-10-02T07:43:18.282Z,15.43
2022-10-02T07:46:09.866Z,15.47
2022-10-02T07:48:51.841Z,15.51
2022-10-02T07:51:51.765Z,15.57
2022-10-02T07:54:48.098Z,15.58
2022-10-02T07:57:49.665Z,15.58
2022-10-02T08:00:19.790Z,15.50
2022-10-02T08:03:00.683Z,15.48
2022-10-02T08:05:36.724Z,15.43
2022-10-02T08:08:40.017Z,15.36
2022-10-02T08:11:10.232Z,15.48
2022-10-02T08:13:46.077Z,15.61
2022-10-02T08:16:17.665Z,15.73
2022-10-02T08:18:54.781Z,15.86
2022-10-02T08:21:26.165Z,15.88
2022-10-02T08:24:22.517Z,15.94
2022-10-02T08:27:06.852Z,16.10
2022-10-02T08:29:47.415Z,16.24
2022-10-02T08:32:15.596Z,16.46
2022-10-02T08:34:44.380Z,16.57
2022-10-02T08:37:25.358Z,16.69
2022-10-02T08:40:22.405Z,16.91
2022-10-02T08:42:50.275Z,17.12
2022-10-02T08:46:06.854Z,17.21
2022-10-02T08:49:02.090Z,17.37
2022-10-02T08:51:48.390Z,17.48
2022-10-02T08:54:16.191Z,17.57
2022-10-02T08:56:56.000Z,17.57
2022-10-02T08:59:26.135Z,17.60
2022-10-02T09:02:33.332Z,17.67
2022-10-02T09:05:28.933Z,17.80
2022-10-02T09:08:33.358Z,17.74
2022-10-02T09:11:22.213Z,17.68
2022-10-02T09:14:11.992Z,17.76
2022-10-02T09:16:54.678Z,17.81
2022-10-02T09:19:47.258Z,17.85
2022-10-02T09:22:33.735Z,17.75
2022-10-02T09:25:18.627Z,17.84
2022-10-02T09:28:14.305Z,17.86
2022-10-02T09:31:20.134Z,17.68
2022-10-02T09:34:06.703Z,17.62
2022-10-02T09:36:41.434Z,17.68
2022-10-02T09:39:12.173Z,17.36
2022-10-02T09:42:24.487Z,17.34
2022-10-02T09:45:28.768Z,17.00
2022-10-02T09:48:12.029Z,17.01
2022-10-02T09:51:11.197Z,17.16
2022-10-02T09:53:39.616Z,17.38
2022-10-02T09:56:25.887Z,17.64
2022-10-02T09:59:08.830Z,17.93
2022-10-02T10:02:04.265Z,18.22
2022-10-02T10:05:05.663Z,18.46
2022-10-02T10:08:22.403Z,18.64
2022-10-02T10:11:23.961Z,18.79
2022-10-02T10:14:22.550Z,18.85
2022-10-02T10:17:28.103Z,18.56
2022-10-02T10:20:09.080Z,18.41
2022-10-02T10:23:00.393Z,18.45
2022-10-02T10:25:50.589Z,18.38
2022-10-02T10:28:34.010Z,18.30
2022-10-02T10:31:13.930Z,18.39
2022-10-02T10:34:03.335Z,18.41
2022-10-02T10:37:16.871Z,18.40
2022-10-02T10:39:59.893Z,18.37
2022-10-02T10:43:06.613Z,18.27
2022-10-02T10:45:49.184Z,18.18
2022-10-02T10:48:23.505Z,18.15
2022-10-02T10:51:14.539Z,18.21
2022-10-02T10:54:15.845Z,18.37
2022-10-02T10:56:51.331Z,18.61
2022-10-02T10:59:42.629Z,19.10
2022-10-02T11:02:36.078Z,19.66
2022-10-02T11:05:19.421Z,20.19
2022-10-02T11:08:15.057Z,20.77
2022-10-02T11:10:58.236Z,21.08
2022-10-02T11:13:56.452Z,21.54
2022-10-02T11:16:30.654Z,21.81
2022-10-02T11:19:21.485Z,21.87
2022-10-02T11:22:28.966Z,21.63
2022-10-02T11:25:27.959Z,21.81
2022-10-02T11:28:22.312Z,22.47
2022-10-02T11:31:11.802Z,22.81
2022-10-02T11:33:55.147Z,22.39
2022-10-02T11:36:41.857Z,21.92
2022-10-02T11:39:31.549Z,21.69
2022-10-02T11:42:08.714Z,22.03
2022-10-02T11:44:59.320Z,22.51
2022-10-02T11:47:46.970Z,22.98
2022-10-02T11:50:36.016Z,23.58
2022-10-02T11:53:18.728Z,24.26
2022-10-02T11:56:18.762Z,24.43
2022-10-02T11:59:29.836Z,24.32
2022-10-02T12:02:05.525Z,23.61
2022-10-02T12:04:42.570Z,23.68
2022-10-02T12:08:15.149Z,23.93
2022-10-02T12:10:57.770Z,23.83
2022-10-02T12:13:31.874Z,23.66
2022-10-02T12:16:11.483Z,23.54
2022-10-02T12:19:11.641Z,23.11
2022-10-02T12:22:31.105Z,23.18
2022-10-02T12:25:37.389Z,23.35
2022-10-02T12:28:15.143Z,23.25
2022-10-02T12:30:51.348Z,23.04
2022-10-02T12:34:01.508Z,22.79
2022-10-02T12:37:01.425Z,22.77
2022-10-02T12:39:51.652Z,22.31
2022-10-02T12:43:00.481Z,21.96
2022-10-02T12:46:03.576Z,21.63
2022-10-02T12:48:51.267Z,20.98
2022-10-02T12:51:35.763Z,20.26
2022-10-02T12:54:47.416Z,20.08
2022-10-02T12:57:52.052Z,20.02
2022-10-02T13:00:25.875Z,19.75
2022-10-02T13:03:30.692Z,19.57
2022-10-02T13:06:37.471Z,19.39
2022-10-02T13:09:11.584Z,19.41
2022-10-02T13:12:17.891Z,19.51
2022-10-02T13:15:18.793Z,19.50
2022-10-02T13:18:05.198Z,19.26
2022-10-02T13:21:05.036Z,19.34
2022-10-02T13:23:57.245Z,19.33
2022-10-02T13:26:42.724Z,19.37
2022-10-02T13:29:22.777Z,19.69
2022-10-02T13:32:22.902Z,20.03
2022-10-02T13:35:11.151Z,20.27
2022-10-02T13:37:47.313Z,20.59
2022-10-02T13:40:18.355Z,20.82
2022-10-02T13:43:14.893Z,21.53
2022-10-02T13:45:45.855Z,22.16
2022-10-02T13:49:07.563Z,22.74
2022-10-02T13:51:54.172Z,23.33
2022-10-02T13:54:41.589Z,24.00
2022-10-02T13:57:22.256Z,23.84
2022-10-02T14:00:09.485Z,23.61
2022-10-02T14:02:47.489Z,23.43
2022-10-02T14:05:44.643Z,23.46
2022-10-02T14:08:21.011Z,22.76
2022-10-02T14:11:16.623Z,22.20
2022-10-02T14:13:59.038Z,21.98
2022-10-02T14:16:35.117Z,21.52
2022-10-02T14:19:27.759Z,21.13
2022-10-02T14:22:18.900Z,20.82
2022-10-02T14:25:04.156Z,20.60
2022-10-02T14:27:53.424Z,20.52
2022-10-02T14:30:23.818Z,20.46
2022-10-02T14:33:11.039Z,20.37
2022-10-02T14:36:22.533Z,20.37
2022-10-02T14:39:17.926Z,20.40
2022-10-02T14:41:53.800Z,20.36
2022-10-02T14:44:39.689Z,20.29
2022-10-02T14:47:26.497Z,20.10
2022-10-02T14:50:18.903Z,19.98
2022-10-02T14:53:11.516Z,19.89
2022-10-02T14:56:04.036Z,19.70
2022-10-02T14:58:32.102Z,19.57
2022-10-02T15:01:18.639Z,19.41
2022-10-02T15:04:01.219Z,19.31
2022-10-02T15:06:57.048Z,19.19
2022-10-02T15:09:33.252Z,19.05
2022-10-02T15:12:11.207Z,19.00
2022-10-02T15:14:54.340Z,18.95
2022-10-02T15:17:57.228Z,18.97
2022-10-02T15:20:37.989Z,19.10
2022-10-02T15:23:11.144Z,19.32
2022-10-02T15:25:54.307Z,19.48
2022-10-02T15:28:54.401Z,19.70
2022-10-02T15:32:07.048Z,20.01
2022-10-02T15:34:46.590Z,20.09
2022-10-02T15:37:28.277Z,20.03
2022-10-02T15:40:23.901Z,19.86
2022-10-02T15:43:23.323Z,19.66
2022-10-02T15:45:51.342Z,19.50
2022-10-02T15:48:25.385Z,19.36
2022-10-02T15:50:58.786Z,19.24
2022-10-02T15:53:41.718Z,19.11
2022-10-02T15:56:47.463Z,18.96
2022-10-02T15:59:37.427Z,18.76
2022-10-02T16:02:20.402Z,18.63
2022-10-02T16:04:57.174Z,18.49
2022-10-02T16:07:44.466Z,18.39
2022-10-02T16:10:18.579Z,18.30
2022-10-02T16:13:28.946Z,18.23
2022-10-02T16:16:32.656Z,18.09
2022-10-02T16:19:35.142Z,17.96
2022-10-02T16:22:17.909Z,17.70
2022-10-02T16:25:09.258Z,17.55
2022-10-02T16:27:59.821Z,17.41
2022-10-02T16:30:37.766Z,17.24
2022-10-02T16:33:10.239Z,17.10
2022-10-02T16:36:33.839Z,17.00
2022-10-02T16:39:14.994Z,16.87
2022-10-02T16:42:02.619Z,16.74
2022-10-02T16:44:43.780Z,16.64
2022-10-02T16:47:36.649Z,16.53
2022-10-02T16:50:48.756Z,16.42
2022-10-02T16:53:32.137Z,16.33
2022-10-02T16:56:42.783Z,16.26
2022-10-02T16:59:14.110Z,16.18
2022-10-02T17:02:17.562Z,16.11
2022-10-02T17:04:51.519Z,16.04
2022-10-02T17:07:53.692Z,15.99
2022-10-02T17:10:34.052Z,15.92
2022-10-02T17:13:25.885Z,15.86
2022-10-02T17:16:07.128Z,15.79
2022-10-02T17:18:47.093Z,15.75
2022-10-02T17:21:21.703Z,15.71
2022-10-02T17:24:01.374Z,15.65
2022-10-02T17:26:40.920Z,15.60
2022-10-02T17:29:24.045Z,15.54
2022-10-02T17:31:59.078Z,15.48
2022-10-02T17:34:48.241Z,15.42
2022-10-02T17:37:16.111Z,15.33
2022-10-02T17:40:21.383Z,15.26
2022-10-02T17:43:03.452Z,15.16
2022-10-02T17:45:58.421Z,15.10
2022-10-02T17:48:46.398Z,15.04
2022-10-02T17:51:57.467Z,14.97
2022-10-02T17:55:20.133Z,14.89
2022-10-02T17:58:20.460Z,14.81
2022-10-02T18:01:08.207Z,14.69
2022-10-02T18:04:03.060Z,14.58
2022-10-02T18:06:42.223Z,14.47
2022-10-02T18:09:36.306Z,14.38
2022-10-02T18:12:07.031Z,14.33
2022-10-02T18:14:52.923Z,14.29
2022-10-02T18:17:30.314Z,14.20
2022-10-02T18:20:23.270Z,14.12
2022-10-02T18:23:02.218Z,14.02
2022-10-02T18:26:18.756Z,13.95
2022-10-02T18:29:15.241Z,13.83
2022-10-02T18:32:01.923Z,13.76
2022-10-02T18:34:48.869Z,13.69
2022-10-02T18:37:17.128Z,13.63
2022-10-02T18:39:58.309Z,13.56
2022-10-02T18:42:55.035Z,13.51
2022-10-02T18:46:01.883Z,13.43
2022-10-02T18:48:35.855Z,13.34
2022-10-02T18:51:33.446Z,13.27
2022-10-02T18:54:39.688Z,13.17
2022-10-02T18:57:07.887Z,13.09
2022-10-02T18:59:58.565Z,13.02
2022-10-02T19:03:06.983Z,12.95
2022-10-02T19:05:46.424Z,12.91
2022-10-02T19:08:20.632Z,12.90
2022-10-02T19:10:48.707Z,12.89
2022-10-02T19:13:24.661Z,12.88
2022-10-02T19:16:01.387Z,12.89
2022-10-02T19:18:33.094Z,12.87
2022-10-02T19:21:05.598Z,12.85
2022-10-02T19:24:01.598Z,12.85
2022-10-02T19:26:33.960Z,12.82
2022-10-02T19:29:25.183Z,12.81
2022-10-02T19:31:55.967Z,12.76
2022-10-02T19:34:30.568Z,12.72
2022-10-02T19:37:04.451Z,12.69
2022-10-02T19:39:36.315Z,12.65
2022-10-02T19:42:25.271Z,12.61
2022-10-02T19:45:03.121Z,12.56
2022-10-02T19:47:48.456Z,12.50
2022-10-02T19:50:28.621Z,12.43
2022-10-02T19:53:06.966Z,12.36
2022-10-02T19:55:41.183Z,12.31
2022-10-02T19:58:18.530Z,12.28
2022-10-02T20:00:47.181Z,12.23
2022-10-02T20:03:20.101Z,12.20
2022-10-02T20:05:53.133Z,12.14
2022-10-02T20:08:26.970Z,12.11
2022-10-02T20:11:08.375Z,12.06
2022-10-02T20:13:45.011Z,12.02
2022-10-02T20:16:41.047Z,11.96
2022-10-02T20:19:48.425Z,11.90
2022-10-02T20:22:24.238Z,11.82
2022-10-02T20:24:59.507Z,11.77
2022-10-02T20:27:46.378Z,11.71
2022-10-02T20:30:17.846Z,11.66
2022-10-02T20:33:07.102Z,11.60
2022-10-02T20:35:45.135Z,11.57
2022-10-02T20:38:35.288Z,11.53
2022-10-02T20:41:13.899Z,11.47
2022-10-02T20:43:49.304Z,11.46
2022-10-02T20:46:38.110Z,11.43
2022-10-02T20:49:30.859Z,11.39
2022-10-02T20:52:29.698Z,11.34
2022-10-02T20:55:07.662Z,11.25
2022-10-02T20:58:32.256Z,11.17
2022-10-02T21:01:07.728Z,11.10
2022-10-02T21:04:09.369Z,11.06
2022-10-02T21:07:14.611Z,11.02
2022-10-02T21:09:59.772Z,10.96
2022-10-02T21:12:55.186Z,10.94
2022-10-02T21:15:47.221Z,10.93
2022-10-02T21:18:26.149Z,10.90
2022-10-02T21:21:23.404Z,10.88
2022-10-02T21:24:19.230Z,10.90
2022-10-02T21:27:31.738Z,10.91
2022-10-02T21:30:12.714Z,10.90
2022-10-02T21:33:14.680Z,10.91
2022-10-02T21:35:51.969Z,10.92
2022-10-02T21:38:41.342Z,10.92
2022-10-02T21:41:19.625Z,10.93
2022-10-02T21:44:03.809Z,10.90
2022-10-02T21:47:18.976Z,10.91
2022-10-02T21:49:58.720Z,10.90
2022-10-02T21:53:01.182Z,10.88
2022-10-02T21:56:05.623Z,10.87
2022-10-02T21:58:39.429Z,10.83
2022-10-02T22:01:13.600Z,10.80
2022-10-02T22:04:02.300Z,10.80
2022-10-02T22:06:36.926Z,10.78
2022-10-02T22:09:21.796Z,10.77
2022-10-02T22:11:58.778Z,10.74
2022-10-02T22:14:43.048Z,10.72
2022-10-02T22:17:26.051Z,10.67
2022-10-02T22:19:54.124Z,10.62
2022-10-02T22:22:56.518Z,10.55
2022-10-02T22:25:37.570Z,10.48
2022-10-02T22:28:44.259Z,10.43
2022-10-02T22:31:40.134Z,10.38
2022-10-02T22:34:33.405Z,10.32
2022-10-02T22:37:04.270Z,10.27
2022-10-02T22:39:40.233Z,10.23
2022-10-02T22:42:23.892Z,10.17
2022-10-02T22:45:02.080Z,10.13
2022-10-02T22:47:49.199Z,10.07
2022-10-02T22:50:29.289Z,10.02
2022-10-02T22:53:25.790Z,9.95
2022-10-02T22:55:57.752Z,9.83
2022-10-02T22:58:55.522Z,9.76
2022-10-02T23:01:48.404Z,9.71
2022-10-02T23:04:23.821Z,9.69
2022-10-02T23:07:02.431Z,9.68
2022-10-02T23:09:41.670Z,9.69
2022-10-02T23:12:17.143Z,9.69
2022-10-02T23:14:59.240Z,9.70
2022-10-02T23:17:43.057Z,9.69
2022-10-02T23:20:32.016Z,9.69
2022-10-02T23:23:03.445Z,9.69
2022-10-02T23:26:05.226Z,9.70
2022-10-02T23:28:53.375Z,9.70
2022-10-02T23:31:33.301Z,9.72
2022-10-02T23:34:34.205Z,9.74
2022-10-02T23:37:32.336Z,9.76
2022-10-02T23:40:15.054Z,9.77
2022-10-02T23:42:59.045Z,9.79
2022-10-02T23:45:43.556Z,9.81
2022-10-02T23:48:14.647Z,9.80
2022-10-02T23:51:02.042Z,9.80
2022-10-02T23:54:07.477Z,9.80
2022-10-02T23:56:54.077Z,9.80
2022-10-02T23:59:43.452Z,9.78
